Gsw Forward — 9V5204 — position and weather

sailwx.info

Track history (hours):
 
Tides and Currents Weather Stations Pressure Air Temp Water Temp Dewpoint Dewpoint Depression Visibility Wind Speed Wind Dir Waves Ship Positions

Gsw Forward

Last reported at 2018-Jun-22 22:30 UTC. Time now 2018-Jun-22 22:41 UTC.
Position N 49°29' W 000°08'.

Length 144 m; draft 6 m.

Type: Ship. MMSI: 563036000.

Date/timePositionNaut miles runAvg speedWind from/ knotsBaromVisibWave heightAir tempDewpointWater temp
2018-Jun-22 22:30N 49°29' W 000°08'0 0.0
2018-Jun-22 22:00N 49°29' W 000°08'0 0.0
2018-Jun-22 21:30N 49°29' W 000°08'0 0.0
2018-Jun-22 21:00N 49°29' W 000°08'0 0.0
2018-Jun-22 20:30N 49°29' W 000°08'0 0.1
2018-Jun-22 20:00N 49°29' W 000°08'0 0.0
2018-Jun-22 19:30N 49°29' W 000°08'0 0.1
2018-Jun-22 19:00N 49°29' W 000°08'0 0.2
2018-Jun-22 18:30N 49°29' W 000°08'0 0.1
2018-Jun-22 18:00N 49°29' W 000°08'0 0.0
2018-Jun-22 17:30N 49°29' W 000°08'0 0.1
2018-Jun-22 17:00N 49°29' W 000°08'0 0.1
2018-Jun-22 16:30N 49°29' W 000°08'0 0.0
2018-Jun-22 16:00N 49°29' W 000°08'0 0.0
2018-Jun-22 15:30N 49°29' W 000°08'0 0.0
2018-Jun-22 15:00N 49°29' W 000°08'0 0.1
2018-Jun-22 14:30N 49°29' W 000°08'0 0.1
2018-Jun-22 14:00N 49°29' W 000°08'0 0.1
2018-Jun-22 13:27N 49°29' W 000°08'0 0.1
2018-Jun-22 13:00N 49°29' W 000°08'0 0.1
2018-Jun-22 12:27N 49°29' W 000°08'0 0.0
2018-Jun-22 12:00N 49°29' W 000°08'1 3.0
2018-Jun-22 11:30N 49°28' W 000°10'4 8.2
2018-Jun-22 11:00N 49°30' W 000°16'510.9
2018-Jun-22 10:30N 49°33' W 000°23'611.0
2018-Jun-22 10:00N 49°35' W 000°31'510.9
2018-Jun-22 09:30N 49°38' W 000°38'611.0
2018-Jun-22 09:00N 49°41' W 000°45'510.7
2018-Jun-22 08:30N 49°44' W 000°52'510.5
2018-Jun-22 08:00N 49°46' W 000°59'510.3
2018-Jun-22 07:30N 49°48' W 001°06'510.7
2018-Jun-22 07:00N 49°49' W 001°15'611.2
2018-Jun-22 06:28N 49°52' W 001°23'4812.6
2018-Jun-22 02:41N 49°51' W 002°37'413.3
2018-Jun-22 02:24N 49°50' W 002°43'513.1
2018-Jun-22 02:00N 49°49' W 002°50'712.9
2018-Jun-22 01:26N 49°46' W 003°01'612.9
2018-Jun-22 00:57N 49°42' W 003°09'612.7
2018-Jun-22 00:30N 49°40' W 003°17'612.5
2018-Jun-22 00:00N 49°36' W 003°25'612.3
2018-Jun-21 23:30N 49°33' W 003°33'1912.4
2018-Jun-21 21:57N 49°24' W 003°59'4211.3
2018-Jun-21 18:13N 49°03' W 004°55'410.7
2018-Jun-21 17:49N 49°01' W 005°01'310.4
2018-Jun-21 17:30N 48°59' W 005°05'1510.2
2018-Jun-21 15:59N 48°51' W 005°25'  
2018-Jun-18 12:29N 40°46' W 010°27'4 9.0
2018-Jun-18 12:00N 40°41' W 010°27'4 8.9
2018-Jun-18 11:30N 40°37' W 010°27'5 9.2
2018-Jun-18 10:57N 40°32' W 010°27'14 8.8
2018-Jun-18 09:21N 40°18' W 010°27'4 8.7
2018-Jun-18 08:55N 40°14' W 010°27'4 8.6
2018-Jun-18 08:29N 40°10' W 010°27'4 8.6
2018-Jun-18 07:59N 40°06' W 010°28'17 8.1
2018-Jun-18 05:53N 39°49' W 010°28'24 8.1
2018-Jun-18 02:53N 39°25' W 010°29'15 8.9
2018-Jun-18 01:09N 39°09' W 010°29'1 9.1
2018-Jun-18 01:00N 39°08' W 010°29'5 9.4
2018-Jun-18 00:30N 39°03' W 010°29'4 9.0
2018-Jun-18 00:00N 38°59' W 010°29'6 9.4
2018-Jun-17 23:19N 38°52' W 010°29'3 9.5
2018-Jun-17 22:59N 38°49' W 010°29'4 9.2
2018-Jun-17 22:30N 38°45' W 010°26'4 8.9
2018-Jun-17 22:00N 38°41' W 010°24'4 9.0
2018-Jun-17 21:30N 38°37' W 010°22'4 9.0
2018-Jun-17 21:00N 38°33' W 010°19'4 8.6
2018-Jun-17 20:30N 38°29' W 010°17'4 8.7
2018-Jun-17 20:00N 38°25' W 010°14'4 7.8
2018-Jun-17 19:30N 38°22' W 010°12'4 8.5
2018-Jun-17 19:00N 38°18' W 010°09'4 7.5
2018-Jun-17 18:30N 38°15' W 010°07'4 8.0
2018-Jun-17 18:00N 38°11' W 010°05'4 7.9
2018-Jun-17 17:30N 38°07' W 010°03'4 7.2
2018-Jun-17 17:00N 38°04' W 010°01'4 7.4
2018-Jun-17 16:30N 38°01' W 009°59'4 7.3
2018-Jun-17 16:00N 37°58' W 009°56'5 9.3
2018-Jun-17 15:30N 37°56' W 009°51'5 9.3
2018-Jun-17 15:00N 37°55' W 009°45'5 9.7
2018-Jun-17 14:30N 37°53' W 009°39'5 9.6
2018-Jun-17 14:00N 37°52' W 009°34'5 9.9
2018-Jun-17 13:30N 37°50' W 009°28'510.4
2018-Jun-17 13:00N 37°49' W 009°21'510.8
2018-Jun-17 12:30N 37°47' W 009°15'4 8.6
2018-Jun-17 12:00N 37°43' W 009°13'510.7
2018-Jun-17 11:30N 37°38' W 009°13'510.5
2018-Jun-17 11:00N 37°32' W 009°13'510.5
2018-Jun-17 10:29N 37°27' W 009°16'510.7
2018-Jun-17 10:00N 37°23' W 009°20'610.4
2018-Jun-17 09:29N 37°19' W 009°24'5 9.6
2018-Jun-17 09:00N 37°15' W 009°27'8 9.5
2018-Jun-17 08:09N 37°07' W 009°27'4 9.1
2018-Jun-17 07:45N 37°03' W 009°27'2 9.5
2018-Jun-17 07:30N 37°01' W 009°28'12 8.9
2018-Jun-17 06:10N 36°49' W 009°23'2 9.7
2018-Jun-17 05:59N 36°48' W 009°21'5 9.4
2018-Jun-17 05:30N 36°45' W 009°17'5 9.4
2018-Jun-17 05:00N 36°41' W 009°13'7 9.3
2018-Jun-17 04:12N 36°38' W 009°05'2 8.8
2018-Jun-17 03:59N 36°38' W 009°02'4 9.0
2018-Jun-17 03:30N 36°37' W 008°57'5 9.4
2018-Jun-17 03:00N 36°36' W 008°52'5 9.7
2018-Jun-17 02:30N 36°35' W 008°46'510.0
2018-Jun-17 02:00N 36°33' W 008°40'510.4
2018-Jun-17 01:30N 36°32' W 008°33'3911.5
2018-Jun-16 22:08N 36°16' W 007°50'212.0
2018-Jun-16 22:00N 36°16' W 007°48'611.7
2018-Jun-16 21:30N 36°14' W 007°41'612.1
2018-Jun-16 21:00N 36°12' W 007°33'9811.7
2018-Jun-16 12:39N 35°58' W 005°33'212.0
2018-Jun-16 12:29N 35°59' W 005°31'611.4
2018-Jun-16 12:00N 36°01' W 005°25'611.0
2018-Jun-16 11:30N 36°02' W 005°18'204 6.6
2018-Jun-15 04:22N 37°04' W 001°16'512.5
2018-Jun-15 03:59N 37°08' W 001°12'612.7
2018-Jun-15 03:30N 37°12' W 001°06'612.6
2018-Jun-15 03:00N 37°16' W 001°00'612.4
2018-Jun-15 02:30N 37°20' W 000°55'612.5
2018-Jun-15 02:00N 37°24' W 000°48'612.5
2018-Jun-15 01:30N 37°28' W 000°42'612.8
2018-Jun-15 01:00N 37°32' W 000°36'612.9
2018-Jun-15 00:30N 37°37' W 000°31'612.8
2018-Jun-15 00:00N 37°42' W 000°26'812.6
2018-Jun-14 23:24N 37°49' W 000°21'512.3
2018-Jun-14 22:58N 37°53' W 000°18'612.3
2018-Jun-14 22:30N 37°58' W 000°14'1512.2
2018-Jun-14 21:19N 38°10' W 000°04'412.3
2018-Jun-14 21:00N 38°14' W 000°01'612.3
2018-Jun-14 20:30N 38°19' E 000°03'612.3
2018-Jun-14 20:00N 38°24' E 000°07'16012.3
2018-Jun-14 06:59N 40°18' E 002°32'611.5
2018-Jun-14 06:28N 40°22' E 002°38'511.5
2018-Jun-14 06:00N 40°25' E 002°43'  
Track history (hours):
 
Tides and Currents Weather Stations Pressure Air Temp Water Temp Dewpoint Dewpoint Depression Visibility Wind Speed Wind Dir Waves Ship Positions

Gsw Forward

Last reported at 2018-Jun-22 22:30 UTC. Time now 2018-Jun-22 22:41 UTC.
Position N 49°29' W 000°08'.

Length 144 m; draft 6 m.

Type: Ship. MMSI: 563036000.

Date/timePositionNaut miles runAvg speedWind from/ knotsBaromVisibWave heightAir tempDewpointWater temp
2018-Jun-22 22:30N 49°29' W 000°08'0 0.0
2018-Jun-22 22:00N 49°29' W 000°08'0 0.0
2018-Jun-22 21:30N 49°29' W 000°08'0 0.0
2018-Jun-22 21:00N 49°29' W 000°08'0 0.0
2018-Jun-22 20:30N 49°29' W 000°08'0 0.1
2018-Jun-22 20:00N 49°29' W 000°08'0 0.0
2018-Jun-22 19:30N 49°29' W 000°08'0 0.1
2018-Jun-22 19:00N 49°29' W 000°08'0 0.2
2018-Jun-22 18:30N 49°29' W 000°08'0 0.1
2018-Jun-22 18:00N 49°29' W 000°08'0 0.0
2018-Jun-22 17:30N 49°29' W 000°08'0 0.1
2018-Jun-22 17:00N 49°29' W 000°08'0 0.1
2018-Jun-22 16:30N 49°29' W 000°08'0 0.0
2018-Jun-22 16:00N 49°29' W 000°08'0 0.0
2018-Jun-22 15:30N 49°29' W 000°08'0 0.0
2018-Jun-22 15:00N 49°29' W 000°08'0 0.1
2018-Jun-22 14:30N 49°29' W 000°08'0 0.1
2018-Jun-22 14:00N 49°29' W 000°08'0 0.1
2018-Jun-22 13:27N 49°29' W 000°08'0 0.1
2018-Jun-22 13:00N 49°29' W 000°08'0 0.1
2018-Jun-22 12:27N 49°29' W 000°08'0 0.0
2018-Jun-22 12:00N 49°29' W 000°08'1 3.0
2018-Jun-22 11:30N 49°28' W 000°10'4 8.2
2018-Jun-22 11:00N 49°30' W 000°16'510.9
2018-Jun-22 10:30N 49°33' W 000°23'611.0
2018-Jun-22 10:00N 49°35' W 000°31'510.9
2018-Jun-22 09:30N 49°38' W 000°38'611.0
2018-Jun-22 09:00N 49°41' W 000°45'510.7
2018-Jun-22 08:30N 49°44' W 000°52'510.5
2018-Jun-22 08:00N 49°46' W 000°59'510.3
2018-Jun-22 07:30N 49°48' W 001°06'510.7
2018-Jun-22 07:00N 49°49' W 001°15'611.2
2018-Jun-22 06:28N 49°52' W 001°23'4812.6
2018-Jun-22 02:41N 49°51' W 002°37'413.3
2018-Jun-22 02:24N 49°50' W 002°43'513.1
2018-Jun-22 02:00N 49°49' W 002°50'712.9
2018-Jun-22 01:26N 49°46' W 003°01'612.9
2018-Jun-22 00:57N 49°42' W 003°09'612.7
2018-Jun-22 00:30N 49°40' W 003°17'612.5
2018-Jun-22 00:00N 49°36' W 003°25'612.3
2018-Jun-21 23:30N 49°33' W 003°33'1912.4
2018-Jun-21 21:57N 49°24' W 003°59'4211.3
2018-Jun-21 18:13N 49°03' W 004°55'410.7
2018-Jun-21 17:49N 49°01' W 005°01'310.4
2018-Jun-21 17:30N 48°59' W 005°05'1510.2
2018-Jun-21 15:59N 48°51' W 005°25'  
2018-Jun-18 12:29N 40°46' W 010°27'4 9.0
2018-Jun-18 12:00N 40°41' W 010°27'4 8.9
2018-Jun-18 11:30N 40°37' W 010°27'5 9.2
2018-Jun-18 10:57N 40°32' W 010°27'14 8.8
2018-Jun-18 09:21N 40°18' W 010°27'4 8.7
2018-Jun-18 08:55N 40°14' W 010°27'4 8.6
2018-Jun-18 08:29N 40°10' W 010°27'4 8.6
2018-Jun-18 07:59N 40°06' W 010°28'17 8.1
2018-Jun-18 05:53N 39°49' W 010°28'24 8.1
2018-Jun-18 02:53N 39°25' W 010°29'15 8.9
2018-Jun-18 01:09N 39°09' W 010°29'1 9.1
2018-Jun-18 01:00N 39°08' W 010°29'5 9.4
2018-Jun-18 00:30N 39°03' W 010°29'4 9.0
2018-Jun-18 00:00N 38°59' W 010°29'6 9.4
2018-Jun-17 23:19N 38°52' W 010°29'3 9.5
2018-Jun-17 22:59N 38°49' W 010°29'4 9.2
2018-Jun-17 22:30N 38°45' W 010°26'4 8.9
2018-Jun-17 22:00N 38°41' W 010°24'4 9.0
2018-Jun-17 21:30N 38°37' W 010°22'4 9.0
2018-Jun-17 21:00N 38°33' W 010°19'4 8.6
2018-Jun-17 20:30N 38°29' W 010°17'4 8.7
2018-Jun-17 20:00N 38°25' W 010°14'4 7.8
2018-Jun-17 19:30N 38°22' W 010°12'4 8.5
2018-Jun-17 19:00N 38°18' W 010°09'4 7.5
2018-Jun-17 18:30N 38°15' W 010°07'4 8.0
2018-Jun-17 18:00N 38°11' W 010°05'4 7.9
2018-Jun-17 17:30N 38°07' W 010°03'4 7.2
2018-Jun-17 17:00N 38°04' W 010°01'4 7.4
2018-Jun-17 16:30N 38°01' W 009°59'4 7.3
2018-Jun-17 16:00N 37°58' W 009°56'5 9.3
2018-Jun-17 15:30N 37°56' W 009°51'5 9.3
2018-Jun-17 15:00N 37°55' W 009°45'5 9.7
2018-Jun-17 14:30N 37°53' W 009°39'5 9.6
2018-Jun-17 14:00N 37°52' W 009°34'5 9.9
2018-Jun-17 13:30N 37°50' W 009°28'510.4
2018-Jun-17 13:00N 37°49' W 009°21'510.8
2018-Jun-17 12:30N 37°47' W 009°15'4 8.6
2018-Jun-17 12:00N 37°43' W 009°13'510.7
2018-Jun-17 11:30N 37°38' W 009°13'510.5
2018-Jun-17 11:00N 37°32' W 009°13'510.5
2018-Jun-17 10:29N 37°27' W 009°16'510.7
2018-Jun-17 10:00N 37°23' W 009°20'610.4
2018-Jun-17 09:29N 37°19' W 009°24'5 9.6
2018-Jun-17 09:00N 37°15' W 009°27'8 9.5
2018-Jun-17 08:09N 37°07' W 009°27'4 9.1
2018-Jun-17 07:45N 37°03' W 009°27'2 9.5
2018-Jun-17 07:30N 37°01' W 009°28'12 8.9
2018-Jun-17 06:10N 36°49' W 009°23'2 9.7
2018-Jun-17 05:59N 36°48' W 009°21'5 9.4
2018-Jun-17 05:30N 36°45' W 009°17'5 9.4
2018-Jun-17 05:00N 36°41' W 009°13'7 9.3
2018-Jun-17 04:12N 36°38' W 009°05'2 8.8
2018-Jun-17 03:59N 36°38' W 009°02'4 9.0
2018-Jun-17 03:30N 36°37' W 008°57'5 9.4
2018-Jun-17 03:00N 36°36' W 008°52'5 9.7
2018-Jun-17 02:30N 36°35' W 008°46'510.0
2018-Jun-17 02:00N 36°33' W 008°40'510.4
2018-Jun-17 01:30N 36°32' W 008°33'3911.5
2018-Jun-16 22:08N 36°16' W 007°50'212.0
2018-Jun-16 22:00N 36°16' W 007°48'611.7
2018-Jun-16 21:30N 36°14' W 007°41'612.1
2018-Jun-16 21:00N 36°12' W 007°33'9811.7
2018-Jun-16 12:39N 35°58' W 005°33'212.0
2018-Jun-16 12:29N 35°59' W 005°31'611.4
2018-Jun-16 12:00N 36°01' W 005°25'611.0
2018-Jun-16 11:30N 36°02' W 005°18'204 6.6
2018-Jun-15 04:22N 37°04' W 001°16'512.5
2018-Jun-15 03:59N 37°08' W 001°12'612.7
2018-Jun-15 03:30N 37°12' W 001°06'612.6
2018-Jun-15 03:00N 37°16' W 001°00'612.4
2018-Jun-15 02:30N 37°20' W 000°55'612.5
2018-Jun-15 02:00N 37°24' W 000°48'612.5
2018-Jun-15 01:30N 37°28' W 000°42'612.8
2018-Jun-15 01:00N 37°32' W 000°36'612.9
2018-Jun-15 00:30N 37°37' W 000°31'612.8
2018-Jun-15 00:00N 37°42' W 000°26'812.6
2018-Jun-14 23:24N 37°49' W 000°21'512.3
2018-Jun-14 22:58N 37°53' W 000°18'612.3
2018-Jun-14 22:30N 37°58' W 000°14'1512.2
2018-Jun-14 21:19N 38°10' W 000°04'412.3
2018-Jun-14 21:00N 38°14' W 000°01'612.3
2018-Jun-14 20:30N 38°19' E 000°03'612.3
2018-Jun-14 20:00N 38°24' E 000°07'16012.3
2018-Jun-14 06:59N 40°18' E 002°32'611.5
2018-Jun-14 06:28N 40°22' E 002°38'511.5
2018-Jun-14 06:00N 40°25' E 002°43'  

Dump ship's entire track history